createdAt,value
2023-05-15T00:04:38.183Z,22.43
2023-05-15T00:09:41.508Z,18.40
2023-05-15T00:14:46.574Z,16.33
2023-05-15T00:19:49.997Z,15.90
2023-05-15T00:24:53.987Z,11.38
2023-05-15T00:29:58.646Z,13.70
2023-05-15T00:35:01.998Z,17.00
2023-05-15T00:40:10.916Z,15.43
2023-05-15T00:45:16.616Z,16.98
2023-05-15T00:50:21.125Z,16.48
2023-05-15T00:55:26.790Z,15.70
2023-05-15T01:00:34.580Z,14.52
2023-05-15T01:05:38.242Z,16.02
2023-05-15T01:10:45.611Z,13.07
2023-05-15T01:15:50.784Z,18.80
2023-05-15T01:21:18.228Z,21.33
2023-05-15T01:26:58.530Z,17.05
2023-05-15T01:32:07.038Z,13.85
2023-05-15T01:37:14.108Z,14.00
2023-05-15T01:42:19.538Z,14.18
2023-05-15T01:47:31.821Z,19.92
2023-05-15T01:52:38.892Z,18.25
2023-05-15T01:57:43.319Z,15.73
2023-05-15T02:02:50.216Z,19.52
2023-05-15T02:07:55.769Z,16.10
2023-05-15T02:13:01.077Z,15.50
2023-05-15T02:18:06.484Z,16.17
2023-05-15T02:23:09.893Z,14.02
2023-05-15T02:28:21.289Z,16.98
2023-05-15T02:33:31.719Z,18.58
2023-05-15T02:38:40.962Z,20.92
2023-05-15T02:43:45.709Z,17.52
2023-05-15T02:48:51.732Z,18.20
2023-05-15T02:53:56.376Z,16.88
2023-05-15T02:58:59.896Z,21.05
2023-05-15T03:04:04.987Z,21.38
2023-05-15T03:09:08.520Z,18.88
2023-05-15T03:14:14.079Z,21.23
2023-05-15T03:19:18.966Z,21.02
2023-05-15T03:24:22.314Z,17.95
2023-05-15T03:29:26.519Z,17.92
2023-05-15T03:34:31.370Z,18.40
2023-05-15T03:39:34.754Z,16.70
2023-05-15T03:44:38.515Z,21.05
2023-05-15T03:49:43.950Z,20.58
2023-05-15T03:54:47.479Z,20.55
2023-05-15T03:59:50.874Z,23.58
2023-05-15T04:04:55.935Z,20.70
2023-05-15T04:10:01.586Z,18.40
2023-05-15T04:15:15.787Z,21.02
2023-05-15T04:20:22.711Z,22.73
2023-05-15T04:25:28.049Z,18.20
2023-05-15T04:30:31.683Z,20.38
2023-05-15T04:35:36.316Z,19.17
2023-05-15T04:40:40.144Z,21.10
2023-05-15T04:45:43.529Z,21.35
2023-05-15T04:50:48.134Z,19.98
2023-05-15T04:55:51.645Z,17.13
2023-05-15T05:00:55.551Z,17.85
2023-05-15T05:06:00.392Z,15.45
2023-05-15T05:11:04.686Z,13.52
2023-05-15T05:16:08.235Z,12.80
2023-05-15T05:21:13.149Z,11.82
2023-05-15T05:26:16.829Z,14.30
2023-05-15T05:31:20.629Z,10.15
2023-05-15T05:36:25.628Z,11.15
2023-05-15T05:46:32.583Z,11.35
2023-05-15T05:51:37.471Z,12.07
2023-05-15T05:56:41.521Z,10.15
2023-05-15T06:01:45.090Z,10.47
2023-05-15T06:06:50.224Z,9.68
2023-05-15T06:11:53.701Z,10.10
2023-05-15T06:16:57.462Z,9.95
2023-05-15T06:22:02.182Z,12.32
2023-05-15T06:32:09.542Z,13.80
2023-05-15T06:37:14.464Z,10.98
2023-05-15T06:47:22.860Z,12.57
2023-05-15T06:52:28.634Z,14.30
2023-05-15T06:57:33.745Z,9.60
2023-05-15T07:02:37.155Z,12.10
2023-05-15T07:07:43.012Z,12.43
2023-05-15T07:12:47.149Z,10.35
2023-05-15T07:17:51.735Z,13.47
2023-05-15T07:22:57.339Z,10.27
2023-05-15T07:28:00.682Z,11.07
2023-05-15T07:33:04.340Z,10.77
2023-05-15T07:38:09.907Z,13.80
2023-05-15T07:43:13.483Z,14.18
2023-05-15T07:48:18.887Z,9.77
2023-05-15T07:53:23.767Z,12.15
2023-05-15T07:58:29.172Z,11.05
2023-05-15T08:03:33.947Z,11.45
2023-05-15T08:08:39.307Z,9.35
2023-05-15T08:13:42.777Z,9.93
2023-05-15T08:18:47.137Z,9.85
2023-05-15T08:23:53.770Z,7.78
2023-05-15T08:28:57.388Z,11.85
2023-05-15T08:34:01.253Z,9.80
2023-05-15T08:39:06.130Z,8.13
2023-05-15T08:44:11.297Z,12.18
2023-05-15T08:49:25.266Z,10.35
2023-05-15T08:54:31.047Z,12.82
2023-05-15T08:59:35.006Z,12.00
2023-05-15T09:04:38.411Z,7.57
2023-05-15T09:09:45.248Z,8.45
2023-05-15T09:14:48.772Z,11.02
2023-05-15T09:19:52.572Z,13.60
2023-05-15T09:24:58.213Z,10.07
2023-05-15T09:30:10.175Z,8.63
2023-05-15T09:35:29.996Z,16.23
2023-05-15T09:40:35.894Z,9.18
2023-05-15T09:45:39.332Z,7.13
2023-05-15T09:50:42.957Z,6.90
2023-05-15T09:55:48.592Z,6.82
2023-05-15T10:00:51.976Z,9.00
2023-05-15T10:06:01.081Z,8.07
2023-05-15T10:11:07.091Z,10.07
2023-05-15T10:16:11.199Z,6.63
2023-05-15T10:21:18.346Z,7.80
2023-05-15T10:26:27.292Z,9.43
2023-05-15T10:31:31.813Z,8.80
2023-05-15T10:36:36.836Z,8.95
2023-05-15T10:41:42.801Z,7.88
2023-05-15T10:46:47.730Z,7.43
2023-05-15T10:51:53.216Z,12.68
2023-05-15T10:56:58.459Z,7.28
2023-05-15T11:02:21.228Z,9.63
2023-05-15T11:07:25.853Z,9.63
2023-05-15T11:12:55.622Z,7.47
2023-05-15T11:18:03.477Z,8.15
2023-05-15T11:23:07.772Z,8.00
2023-05-15T11:28:23.169Z,7.50
2023-05-15T11:33:30.353Z,10.07
2023-05-15T11:38:39.874Z,8.52
2023-05-15T11:43:45.813Z,8.45
2023-05-15T11:48:50.748Z,7.05
2023-05-15T11:53:56.754Z,6.07
2023-05-15T11:59:02.486Z,11.90
2023-05-15T12:04:12.921Z,7.15
2023-05-15T12:09:19.138Z,15.55
2023-05-15T12:14:28.932Z,9.70
2023-05-15T12:19:33.424Z,6.53
2023-05-15T12:24:39.781Z,8.90
2023-05-15T12:29:45.146Z,5.40
2023-05-15T12:34:49.520Z,5.20
2023-05-15T12:39:54.814Z,5.55
2023-05-15T12:45:00.471Z,4.18
2023-05-15T12:50:13.049Z,2.83
2023-05-15T12:55:17.397Z,5.95
2023-05-15T13:00:23.211Z,4.28
2023-05-15T13:05:27.440Z,4.50
2023-05-15T13:10:33.027Z,4.82
2023-05-15T13:15:39.401Z,8.48
2023-05-15T13:20:45.187Z,6.15
2023-05-15T13:25:48.470Z,5.18
2023-05-15T13:30:53.624Z,5.97
2023-05-15T13:41:18.410Z,6.15
2023-05-15T13:46:24.482Z,5.57
2023-05-15T13:51:38.607Z,5.43
2023-05-15T13:57:00.880Z,6.53
2023-05-15T14:02:09.772Z,6.82
2023-05-15T14:07:14.991Z,5.97
2023-05-15T14:12:19.752Z,4.30
2023-05-15T14:17:24.996Z,3.75
2023-05-15T14:22:28.554Z,5.05
2023-05-15T14:27:32.320Z,6.15
2023-05-15T14:32:37.465Z,4.80
2023-05-15T14:37:41.034Z,6.32
2023-05-15T14:42:44.554Z,4.03
2023-05-15T14:47:49.575Z,6.78
2023-05-15T14:52:53.839Z,4.35
2023-05-15T14:57:58.946Z,4.47
2023-05-15T15:03:04.948Z,4.43
2023-05-15T15:08:10.137Z,3.80
2023-05-15T15:13:14.113Z,4.18
2023-05-15T15:18:20.698Z,4.75
2023-05-15T15:23:24.152Z,6.07
2023-05-15T15:28:29.643Z,4.22
2023-05-15T15:33:34.361Z,8.70
2023-05-15T15:38:41.856Z,5.15
2023-05-15T15:43:45.414Z,5.32
2023-05-15T15:48:50.137Z,3.45
2023-05-15T15:53:53.525Z,7.70
2023-05-15T15:58:56.845Z,7.70
2023-05-15T16:04:02.315Z,3.88
2023-05-15T16:09:05.769Z,6.57
2023-05-15T16:14:09.454Z,7.68
2023-05-15T16:19:14.519Z,4.03
2023-05-15T16:24:18.169Z,5.00
2023-05-15T16:29:24.009Z,4.63
2023-05-15T16:34:28.760Z,4.50
2023-05-15T16:39:38.564Z,7.55
2023-05-15T16:44:42.011Z,5.80
2023-05-15T16:49:49.155Z,4.57
2023-05-15T16:54:53.561Z,5.90
2023-05-15T16:59:57.062Z,4.93
2023-05-15T17:05:01.783Z,8.15
2023-05-15T17:10:06.170Z,5.05
2023-05-15T17:15:10.128Z,8.00
2023-05-15T17:20:15.230Z,6.32
2023-05-15T17:30:22.088Z,5.57
2023-05-15T17:35:27.584Z,5.32
2023-05-15T17:40:31.792Z,6.07
2023-05-15T17:45:35.285Z,9.15
2023-05-15T17:50:40.010Z,6.88
2023-05-15T17:55:44.301Z,6.72
2023-05-15T18:00:47.816Z,7.95
2023-05-15T18:05:52.782Z,7.60
2023-05-15T18:10:56.219Z,5.40
2023-05-15T18:16:56.880Z,6.40
2023-05-15T18:22:03.349Z,5.75
2023-05-15T18:27:07.207Z,6.50
2023-05-15T18:32:11.460Z,6.10
2023-05-15T18:37:16.790Z,5.18
2023-05-15T18:42:20.138Z,6.88
2023-05-15T18:47:23.987Z,7.15
2023-05-15T18:52:28.952Z,7.65
2023-05-15T18:57:32.384Z,5.78
2023-05-15T19:02:37.831Z,6.82
2023-05-15T19:07:42.775Z,9.70
2023-05-15T19:12:46.370Z,8.20
2023-05-15T19:17:49.867Z,6.93
2023-05-15T19:22:55.042Z,6.47
2023-05-15T19:27:58.600Z,6.75
2023-05-15T19:33:02.413Z,7.47
2023-05-15T19:38:07.598Z,9.20
2023-05-15T19:43:11.484Z,12.95
2023-05-15T19:48:15.013Z,15.60
2023-05-15T19:53:20.214Z,8.93
2023-05-15T20:03:33.309Z,10.65
2023-05-15T20:08:38.981Z,8.15
2023-05-15T20:13:42.396Z,10.00
2023-05-15T20:18:47.998Z,8.20
2023-05-15T20:23:52.721Z,7.88
2023-05-15T20:28:56.262Z,7.45
2023-05-15T20:34:00.786Z,7.63
2023-05-15T20:39:07.210Z,10.10
2023-05-15T20:44:10.973Z,8.27
2023-05-15T20:49:14.404Z,7.47
2023-05-15T20:54:19.245Z,16.95
2023-05-15T20:59:22.826Z,7.57
2023-05-15T21:04:26.381Z,9.20
2023-05-15T21:09:31.681Z,7.72
2023-05-15T21:14:35.593Z,7.30
2023-05-15T21:19:39.009Z,8.48
2023-05-15T21:24:43.709Z,12.23
2023-05-15T21:29:47.128Z,7.30
2023-05-15T21:34:50.534Z,8.02
2023-05-15T21:39:55.335Z,7.97
2023-05-15T21:44:59.494Z,8.77
2023-05-15T21:50:02.907Z,9.90
2023-05-15T21:55:09.003Z,7.50
2023-05-15T22:00:14.085Z,9.60
2023-05-15T22:05:21.134Z,8.30
2023-05-15T22:10:26.246Z,9.18
2023-05-15T22:15:30.062Z,8.88
2023-05-15T22:20:34.192Z,8.23
2023-05-15T22:25:39.340Z,9.77
2023-05-15T22:30:42.705Z,9.68
2023-05-15T22:35:46.279Z,8.68
2023-05-15T22:40:52.405Z,7.47
2023-05-15T22:45:56.211Z,11.27
2023-05-15T22:50:59.638Z,8.07
2023-05-15T22:56:04.468Z,11.10
2023-05-15T23:01:07.859Z,12.35
2023-05-15T23:06:16.475Z,9.88
2023-05-15T23:11:21.434Z,11.32
2023-05-15T23:16:25.632Z,11.85
2023-05-15T23:21:29.122Z,10.40
2023-05-15T23:26:33.776Z,11.70
2023-05-15T23:31:37.102Z,13.00
2023-05-15T23:36:40.767Z,11.88
2023-05-15T23:41:45.558Z,16.77
2023-05-15T23:46:48.969Z,13.00
2023-05-15T23:51:52.317Z,13.48
2023-05-15T23:56:56.923Z,14.32
